NDF6026 EDDS-LFML
Flight info
| Callsign | NDF6026 |
|---|---|
| Flight time | 1h 6m |
| Altitude | 35000 |
| Route | ROTWE5B ROTWE Y126 TUBLO N850 NATOR DCT LUTIX DCT BENOT DCT NEMOS DCT GEVEA DCT INCUS DCT BALSI BALSI1R |
| Aircraft | A321/M-SDE3FGHIRWY/LB1 |
Departure
| Time | 2026-05-05 16:54 |
|---|---|
| Airport | Stuttgart Airport (EDDS) |
Arrival
| Time | 2026-05-05 18:01 |
|---|---|
| Airport | Marseille Provence Airport (LFML) |
| Time | Latitude | Longitude | Altitude | Speed | Heading |
|---|---|---|---|---|---|
| 2026-05-05 16:30 | 48.68913 | 9.19514 | 1312 ft | 0 kts | 344° |
| 2026-05-05 16:42 | 48.68905 | 9.19518 | 1312 ft | 2 kts | 339° |
| 2026-05-05 16:43 | 48.68890 | 9.19526 | 1311 ft | 2 kts | 341° |
| 2026-05-05 16:43 | 48.68876 | 9.19533 | 1310 ft | 2 kts | 341° |
| 2026-05-05 16:43 | 48.68862 | 9.19540 | 1310 ft | 2 kts | 341° |
| 2026-05-05 16:43 | 48.68848 | 9.19548 | 1309 ft | 2 kts | 2° |
| 2026-05-05 16:44 | 48.68835 | 9.19539 | 1309 ft | 1 kts | 61° |
| 2026-05-05 16:44 | 48.68833 | 9.19526 | 1310 ft | 0 kts | 84° |
| 2026-05-05 16:44 | 48.68832 | 9.19519 | 1310 ft | 0 kts | 73° |
| 2026-05-05 16:46 | 48.68833 | 9.19524 | 1310 ft | 2 kts | 73° |
| 2026-05-05 16:46 | 48.68844 | 9.19580 | 1308 ft | 8 kts | 73° |
| 2026-05-05 16:46 | 48.68867 | 9.19696 | 1304 ft | 13 kts | 73° |
| 2026-05-05 16:47 | 48.68890 | 9.19848 | 1299 ft | 12 kts | 109° |
| 2026-05-05 16:47 | 48.68819 | 9.19942 | 1293 ft | 12 kts | 79° |
| 2026-05-05 16:47 | 48.68844 | 9.20061 | 1289 ft | 14 kts | 72° |
| 2026-05-05 16:47 | 48.68876 | 9.20230 | 1284 ft | 18 kts | 74° |
| 2026-05-05 16:48 | 48.68916 | 9.20439 | 1276 ft | 22 kts | 73° |
| 2026-05-05 16:48 | 48.68962 | 9.20680 | 1267 ft | 23 kts | 73° |
| 2026-05-05 16:48 | 48.69009 | 9.20930 | 1258 ft | 26 kts | 74° |
| 2026-05-05 16:48 | 48.69058 | 9.21184 | 1252 ft | 23 kts | 74° |
| 2026-05-05 16:49 | 48.69103 | 9.21424 | 1248 ft | 24 kts | 74° |
| 2026-05-05 16:49 | 48.69149 | 9.21666 | 1246 ft | 24 kts | 74° |
| 2026-05-05 16:49 | 48.69192 | 9.21892 | 1240 ft | 23 kts | 74° |
| 2026-05-05 16:49 | 48.69239 | 9.22140 | 1233 ft | 25 kts | 74° |
| 2026-05-05 16:50 | 48.69289 | 9.22405 | 1227 ft | 26 kts | 73° |
| 2026-05-05 16:50 | 48.69343 | 9.22687 | 1219 ft | 28 kts | 74° |
| 2026-05-05 16:50 | 48.69395 | 9.22961 | 1212 ft | 28 kts | 74° |
| 2026-05-05 16:50 | 48.69447 | 9.23236 | 1205 ft | 27 kts | 74° |
| 2026-05-05 16:51 | 48.69500 | 9.23511 | 1200 ft | 27 kts | 74° |
| 2026-05-05 16:51 | 48.69548 | 9.23773 | 1196 ft | 23 kts | 73° |
| 2026-05-05 16:51 | 48.69591 | 9.23992 | 1192 ft | 18 kts | 73° |
| 2026-05-05 16:51 | 48.69608 | 9.24156 | 1190 ft | 12 kts | 108° |
| 2026-05-05 16:52 | 48.69568 | 9.24270 | 1185 ft | 11 kts | 126° |
| 2026-05-05 16:52 | 48.69537 | 9.24300 | 1183 ft | 0 kts | 161° |
| 2026-05-05 16:52 | 48.69522 | 9.24307 | 1182 ft | 3 kts | 162° |
| 2026-05-05 16:52 | 48.69494 | 9.24320 | 1181 ft | 6 kts | 162° |
| 2026-05-05 16:53 | 48.69429 | 9.24341 | 1179 ft | 12 kts | 182° |
| 2026-05-05 16:53 | 48.69381 | 9.24271 | 1181 ft | 0 kts | 253° |
| 2026-05-05 16:53 | 48.69379 | 9.24259 | 1181 ft | 8 kts | 253° |
| 2026-05-05 16:54 | 48.69289 | 9.23784 | 1191 ft | 83 kts | 254° |
| 2026-05-05 16:54 | 48.69069 | 9.22630 | 1219 ft | 143 kts | 254° |
| 2026-05-05 16:54 | 48.68759 | 9.21000 | 1504 ft | 169 kts | 255° |
| 2026-05-05 16:54 | 48.68446 | 9.19259 | 2040 ft | 180 kts | 256° |
| 2026-05-05 16:55 | 48.68140 | 9.17428 | 2764 ft | 182 kts | 256° |
| 2026-05-05 16:55 | 48.67851 | 9.15609 | 3434 ft | 178 kts | 257° |
| 2026-05-05 16:55 | 48.67570 | 9.13737 | 3837 ft | 187 kts | 257° |
| 2026-05-05 16:55 | 48.67256 | 9.11765 | 4156 ft | 202 kts | 254° |
| 2026-05-05 16:56 | 48.66812 | 9.09672 | 4440 ft | 220 kts | 251° |
| 2026-05-05 16:56 | 48.66298 | 9.07367 | 4735 ft | 240 kts | 251° |
| 2026-05-05 16:56 | 48.65770 | 9.04902 | 5164 ft | 255 kts | 252° |
| 2026-05-05 16:56 | 48.65242 | 9.02320 | 5880 ft | 258 kts | 252° |
| 2026-05-05 16:57 | 48.64732 | 8.99769 | 6665 ft | 259 kts | 252° |
| 2026-05-05 16:57 | 48.64215 | 8.97152 | 7419 ft | 262 kts | 253° |
| 2026-05-05 16:57 | 48.63702 | 8.94542 | 8157 ft | 265 kts | 253° |
| 2026-05-05 16:57 | 48.63176 | 8.91861 | 8898 ft | 268 kts | 253° |
| 2026-05-05 16:58 | 48.62650 | 8.89175 | 9620 ft | 272 kts | 253° |
| 2026-05-05 16:58 | 48.61895 | 8.86584 | 10288 ft | 277 kts | 233° |
| 2026-05-05 16:58 | 48.60440 | 8.84529 | 10694 ft | 293 kts | 219° |
| 2026-05-05 16:58 | 48.58763 | 8.82623 | 11015 ft | 311 kts | 218° |
| 2026-05-05 16:59 | 48.57015 | 8.80639 | 11311 ft | 327 kts | 218° |
| 2026-05-05 16:59 | 48.55170 | 8.78487 | 11711 ft | 339 kts | 219° |
| 2026-05-05 16:59 | 48.53327 | 8.76293 | 12319 ft | 343 kts | 219° |
| 2026-05-05 16:59 | 48.51452 | 8.74033 | 12979 ft | 346 kts | 219° |
| 2026-05-05 17:00 | 48.49591 | 8.71776 | 13621 ft | 349 kts | 219° |
| 2026-05-05 17:00 | 48.47700 | 8.69473 | 14248 ft | 352 kts | 219° |
| 2026-05-05 17:00 | 48.45798 | 8.67151 | 14831 ft | 355 kts | 219° |
| 2026-05-05 17:00 | 48.43877 | 8.64806 | 15416 ft | 359 kts | 219° |
| 2026-05-05 17:01 | 48.41942 | 8.62441 | 16016 ft | 361 kts | 219° |
| 2026-05-05 17:01 | 48.39967 | 8.60032 | 16592 ft | 364 kts | 219° |
| 2026-05-05 17:01 | 48.38017 | 8.57652 | 17118 ft | 368 kts | 219° |
| 2026-05-05 17:01 | 48.36012 | 8.55207 | 17652 ft | 371 kts | 219° |
| 2026-05-05 17:02 | 48.34006 | 8.52765 | 18170 ft | 374 kts | 219° |
| 2026-05-05 17:02 | 48.31985 | 8.50306 | 18687 ft | 377 kts | 219° |
| 2026-05-05 17:02 | 48.29954 | 8.47836 | 19196 ft | 379 kts | 218° |
| 2026-05-05 17:02 | 48.27916 | 8.45361 | 19679 ft | 382 kts | 218° |
| 2026-05-05 17:03 | 48.25848 | 8.42851 | 20139 ft | 386 kts | 218° |
| 2026-05-05 17:03 | 48.23739 | 8.40296 | 20605 ft | 389 kts | 218° |
| 2026-05-05 17:03 | 48.21632 | 8.37745 | 21071 ft | 392 kts | 218° |
| 2026-05-05 17:03 | 48.19525 | 8.35199 | 21527 ft | 395 kts | 218° |
| 2026-05-05 17:04 | 48.17350 | 8.32657 | 21976 ft | 397 kts | 215° |
| 2026-05-05 17:04 | 48.15065 | 8.30303 | 22407 ft | 400 kts | 212° |
| 2026-05-05 17:04 | 48.12741 | 8.28065 | 22818 ft | 403 kts | 211° |
| 2026-05-05 17:04 | 48.10383 | 8.25792 | 23236 ft | 406 kts | 211° |
| 2026-05-05 17:05 | 48.08021 | 8.23517 | 23662 ft | 408 kts | 211° |
| 2026-05-05 17:05 | 48.05613 | 8.21201 | 24077 ft | 411 kts | 211° |
| 2026-05-05 17:05 | 48.03218 | 8.18897 | 24490 ft | 413 kts | 211° |
| 2026-05-05 17:05 | 48.00813 | 8.16587 | 24907 ft | 415 kts | 211° |
| 2026-05-05 17:06 | 47.98389 | 8.14260 | 25318 ft | 417 kts | 211° |
| 2026-05-05 17:06 | 47.95950 | 8.11921 | 25711 ft | 418 kts | 211° |
| 2026-05-05 17:06 | 47.93504 | 8.09578 | 26091 ft | 420 kts | 211° |
| 2026-05-05 17:06 | 47.91022 | 8.07203 | 26472 ft | 422 kts | 211° |
| 2026-05-05 17:07 | 47.88569 | 8.04859 | 26847 ft | 423 kts | 211° |
| 2026-05-05 17:07 | 47.86089 | 8.02492 | 27206 ft | 425 kts | 211° |
| 2026-05-05 17:07 | 47.83609 | 8.00127 | 27545 ft | 427 kts | 211° |
| 2026-05-05 17:07 | 47.81079 | 7.97715 | 27886 ft | 429 kts | 211° |
| 2026-05-05 17:08 | 47.78584 | 7.95342 | 28217 ft | 431 kts | 211° |
| 2026-05-05 17:08 | 47.76057 | 7.92941 | 28681 ft | 429 kts | 211° |
| 2026-05-05 17:08 | 47.73571 | 7.90580 | 29182 ft | 426 kts | 211° |
| 2026-05-05 17:08 | 47.71088 | 7.88224 | 29657 ft | 424 kts | 211° |
| 2026-05-05 17:09 | 47.68615 | 7.85880 | 30081 ft | 423 kts | 211° |
| 2026-05-05 17:09 | 47.66146 | 7.83544 | 30517 ft | 421 kts | 211° |
| 2026-05-05 17:09 | 47.63700 | 7.81236 | 30933 ft | 419 kts | 212° |
| 2026-05-05 17:09 | 47.61264 | 7.78936 | 31309 ft | 417 kts | 212° |
| 2026-05-05 17:10 | 47.58814 | 7.76627 | 31645 ft | 416 kts | 212° |
| 2026-05-05 17:10 | 47.56398 | 7.74350 | 31981 ft | 415 kts | 212° |
| 2026-05-05 17:10 | 47.53973 | 7.72066 | 32282 ft | 414 kts | 212° |
| 2026-05-05 17:10 | 47.51532 | 7.69774 | 32578 ft | 413 kts | 212° |
| 2026-05-05 17:11 | 47.49137 | 7.67525 | 32916 ft | 411 kts | 212° |
| 2026-05-05 17:11 | 47.46733 | 7.65270 | 33242 ft | 409 kts | 212° |
| 2026-05-05 17:11 | 47.44326 | 7.63011 | 33469 ft | 410 kts | 212° |
| 2026-05-05 17:11 | 47.41920 | 7.60760 | 33682 ft | 411 kts | 212° |
| 2026-05-05 17:12 | 47.39517 | 7.58514 | 33907 ft | 411 kts | 213° |
| 2026-05-05 17:12 | 47.37115 | 7.56270 | 34140 ft | 411 kts | 213° |
| 2026-05-05 17:12 | 47.34716 | 7.54028 | 34341 ft | 412 kts | 213° |
| 2026-05-05 17:12 | 47.32294 | 7.51769 | 34507 ft | 413 kts | 212° |
| 2026-05-05 17:13 | 47.29861 | 7.49501 | 34670 ft | 415 kts | 213° |
| 2026-05-05 17:13 | 47.27410 | 7.47223 | 34829 ft | 416 kts | 213° |
| 2026-05-05 17:13 | 47.22574 | 7.42651 | 34861 ft | 415 kts | 215° |
| 2026-05-05 17:14 | 47.18000 | 7.37497 | 34874 ft | 415 kts | 220° |
| 2026-05-05 17:14 | 47.13834 | 7.31716 | 34855 ft | 415 kts | 225° |
| 2026-05-05 17:15 | 47.10052 | 7.25279 | 34865 ft | 416 kts | 230° |
| 2026-05-05 17:15 | 47.06482 | 7.18673 | 34864 ft | 415 kts | 230° |
| 2026-05-05 17:16 | 47.02890 | 7.12073 | 34952 ft | 414 kts | 230° |
| 2026-05-05 17:16 | 46.99323 | 7.05544 | 34889 ft | 413 kts | 230° |
| 2026-05-05 17:17 | 46.95727 | 6.98983 | 34869 ft | 414 kts | 230° |
| 2026-05-05 17:17 | 46.92014 | 6.92631 | 34869 ft | 414 kts | 226° |
| 2026-05-05 17:18 | 46.87867 | 6.86838 | 34868 ft | 413 kts | 220° |
| 2026-05-05 17:18 | 46.83446 | 6.81533 | 34866 ft | 413 kts | 219° |
| 2026-05-05 17:19 | 46.78994 | 6.76221 | 34871 ft | 412 kts | 219° |
| 2026-05-05 17:19 | 46.74598 | 6.70992 | 34868 ft | 411 kts | 219° |
| 2026-05-05 17:20 | 46.70152 | 6.65719 | 34869 ft | 410 kts | 219° |
| 2026-05-05 17:20 | 46.65750 | 6.60510 | 34858 ft | 411 kts | 219° |
| 2026-05-05 17:21 | 46.61318 | 6.55280 | 34860 ft | 410 kts | 219° |
| 2026-05-05 17:22 | 46.54681 | 6.47468 | 34857 ft | 410 kts | 219° |
| 2026-05-05 17:22 | 46.50292 | 6.42314 | 34855 ft | 409 kts | 219° |
| 2026-05-05 17:23 | 46.45867 | 6.37128 | 34854 ft | 410 kts | 219° |
| 2026-05-05 17:23 | 46.41456 | 6.31968 | 34855 ft | 408 kts | 219° |
| 2026-05-05 17:24 | 46.37051 | 6.26827 | 34864 ft | 408 kts | 219° |
| 2026-05-05 17:24 | 46.32647 | 6.21712 | 34863 ft | 407 kts | 218° |
| 2026-05-05 17:25 | 46.27924 | 6.17230 | 34864 ft | 408 kts | 210° |
| 2026-05-05 17:25 | 46.22751 | 6.13826 | 34747 ft | 409 kts | 202° |
| 2026-05-05 17:25 | 46.20044 | 6.12561 | 34869 ft | 410 kts | 198° |
| 2026-05-05 17:26 | 46.17279 | 6.11598 | 34865 ft | 412 kts | 194° |
| 2026-05-05 17:26 | 46.11619 | 6.10254 | 34857 ft | 413 kts | 192° |
| 2026-05-05 17:27 | 46.05948 | 6.08975 | 34789 ft | 413 kts | 192° |
| 2026-05-05 17:27 | 46.00305 | 6.07716 | 34846 ft | 413 kts | 192° |
| 2026-05-05 17:28 | 45.94614 | 6.06447 | 34858 ft | 412 kts | 192° |
| 2026-05-05 17:28 | 45.88948 | 6.05190 | 34858 ft | 412 kts | 192° |
| 2026-05-05 17:29 | 45.83272 | 6.03937 | 34865 ft | 411 kts | 193° |
| 2026-05-05 17:29 | 45.77639 | 6.02695 | 34867 ft | 409 kts | 193° |
| 2026-05-05 17:30 | 45.71998 | 6.01452 | 34872 ft | 408 kts | 193° |
| 2026-05-05 17:30 | 45.66427 | 6.00222 | 34862 ft | 407 kts | 193° |
| 2026-05-05 17:31 | 45.60821 | 5.98985 | 34867 ft | 407 kts | 193° |
| 2026-05-05 17:31 | 45.55250 | 5.97624 | 34857 ft | 404 kts | 197° |
| 2026-05-05 17:32 | 45.49967 | 5.95089 | 34860 ft | 400 kts | 207° |
| 2026-05-05 17:32 | 45.45145 | 5.91262 | 34871 ft | 397 kts | 216° |
| 2026-05-05 17:33 | 45.40908 | 5.86289 | 34884 ft | 395 kts | 225° |
| 2026-05-05 17:33 | 45.37021 | 5.80783 | 34888 ft | 397 kts | 225° |
| 2026-05-05 17:34 | 45.33140 | 5.75246 | 34892 ft | 396 kts | 225° |
| 2026-05-05 17:34 | 45.29273 | 5.69732 | 34894 ft | 395 kts | 225° |
| 2026-05-05 17:34 | 45.27336 | 5.66973 | 34655 ft | 396 kts | 226° |
| 2026-05-05 17:35 | 45.25401 | 5.64220 | 34191 ft | 394 kts | 225° |
| 2026-05-05 17:35 | 45.23468 | 5.61470 | 33562 ft | 394 kts | 225° |
| 2026-05-05 17:35 | 45.21548 | 5.58740 | 32875 ft | 395 kts | 225° |
| 2026-05-05 17:35 | 45.19596 | 5.55967 | 32153 ft | 396 kts | 225° |
| 2026-05-05 17:36 | 45.17669 | 5.53232 | 31420 ft | 397 kts | 225° |
| 2026-05-05 17:36 | 45.15712 | 5.50461 | 30636 ft | 399 kts | 225° |
| 2026-05-05 17:36 | 45.13785 | 5.47735 | 29795 ft | 400 kts | 225° |
| 2026-05-05 17:36 | 45.11818 | 5.44956 | 28958 ft | 400 kts | 225° |
| 2026-05-05 17:37 | 45.09848 | 5.42180 | 28463 ft | 396 kts | 225° |
| 2026-05-05 17:37 | 45.05955 | 5.36708 | 28374 ft | 399 kts | 225° |
| 2026-05-05 17:37 | 45.03965 | 5.33915 | 28262 ft | 400 kts | 224° |
| 2026-05-05 17:38 | 45.02016 | 5.31180 | 28086 ft | 400 kts | 224° |
| 2026-05-05 17:38 | 45.00032 | 5.28395 | 27835 ft | 398 kts | 224° |
| 2026-05-05 17:38 | 44.98067 | 5.25639 | 27575 ft | 397 kts | 224° |
| 2026-05-05 17:38 | 44.96127 | 5.22921 | 27320 ft | 397 kts | 224° |
| 2026-05-05 17:39 | 44.94167 | 5.20167 | 27072 ft | 396 kts | 224° |
| 2026-05-05 17:39 | 44.92224 | 5.17460 | 26814 ft | 395 kts | 224° |
| 2026-05-05 17:39 | 44.90265 | 5.14740 | 26507 ft | 394 kts | 224° |
| 2026-05-05 17:39 | 44.88323 | 5.12037 | 26144 ft | 394 kts | 224° |
| 2026-05-05 17:40 | 44.86395 | 5.09349 | 25679 ft | 392 kts | 224° |
| 2026-05-05 17:40 | 44.84473 | 5.06670 | 25170 ft | 389 kts | 224° |
| 2026-05-05 17:40 | 44.82552 | 5.03990 | 24633 ft | 386 kts | 224° |
| 2026-05-05 17:40 | 44.80653 | 5.01345 | 24088 ft | 382 kts | 224° |
| 2026-05-05 17:41 | 44.78799 | 4.98768 | 23555 ft | 379 kts | 224° |
| 2026-05-05 17:41 | 44.76924 | 4.96166 | 23008 ft | 375 kts | 224° |
| 2026-05-05 17:41 | 44.75083 | 4.93621 | 22467 ft | 371 kts | 223° |
| 2026-05-05 17:41 | 44.73145 | 4.91292 | 21943 ft | 368 kts | 218° |
| 2026-05-05 17:42 | 44.71037 | 4.89240 | 21535 ft | 365 kts | 212° |
| 2026-05-05 17:42 | 44.68802 | 4.87477 | 21172 ft | 371 kts | 208° |
| 2026-05-05 17:42 | 44.66520 | 4.85834 | 20653 ft | 368 kts | 207° |
| 2026-05-05 17:42 | 44.64255 | 4.84225 | 20137 ft | 365 kts | 207° |
| 2026-05-05 17:43 | 44.62011 | 4.82639 | 19622 ft | 362 kts | 207° |
| 2026-05-05 17:43 | 44.59798 | 4.81079 | 19237 ft | 353 kts | 207° |
| 2026-05-05 17:43 | 44.57637 | 4.79578 | 19050 ft | 340 kts | 205° |
| 2026-05-05 17:43 | 44.55445 | 4.78384 | 18844 ft | 329 kts | 199° |
| 2026-05-05 17:44 | 44.53221 | 4.77550 | 18804 ft | 336 kts | 194° |
| 2026-05-05 17:44 | 44.50939 | 4.76963 | 18830 ft | 340 kts | 192° |
| 2026-05-05 17:44 | 44.48609 | 4.76406 | 18852 ft | 340 kts | 192° |
| 2026-05-05 17:44 | 44.46247 | 4.75848 | 18862 ft | 341 kts | 192° |
| 2026-05-05 17:45 | 44.43930 | 4.75303 | 18864 ft | 340 kts | 192° |
| 2026-05-05 17:45 | 44.41572 | 4.74747 | 18865 ft | 341 kts | 192° |
| 2026-05-05 17:45 | 44.39262 | 4.74201 | 18857 ft | 340 kts | 192° |
| 2026-05-05 17:45 | 44.36921 | 4.73649 | 18521 ft | 342 kts | 192° |
| 2026-05-05 17:46 | 44.34569 | 4.73092 | 17947 ft | 341 kts | 192° |
| 2026-05-05 17:46 | 44.32258 | 4.72544 | 17443 ft | 339 kts | 192° |
| 2026-05-05 17:46 | 44.29935 | 4.71997 | 16948 ft | 336 kts | 192° |
| 2026-05-05 17:46 | 44.27661 | 4.71460 | 16473 ft | 333 kts | 191° |
| 2026-05-05 17:47 | 44.25386 | 4.70922 | 16014 ft | 330 kts | 191° |
| 2026-05-05 17:47 | 44.23132 | 4.70390 | 15560 ft | 327 kts | 191° |
| 2026-05-05 17:47 | 44.20909 | 4.69867 | 15101 ft | 325 kts | 191° |
| 2026-05-05 17:47 | 44.18696 | 4.69347 | 14654 ft | 322 kts | 191° |
| 2026-05-05 17:48 | 44.16479 | 4.68826 | 14206 ft | 320 kts | 191° |
| 2026-05-05 17:48 | 44.14307 | 4.68319 | 13751 ft | 318 kts | 190° |
| 2026-05-05 17:48 | 44.12099 | 4.68217 | 13289 ft | 318 kts | 176° |
| 2026-05-05 17:48 | 44.09954 | 4.68845 | 12851 ft | 318 kts | 164° |
| 2026-05-05 17:49 | 44.07900 | 4.69939 | 12396 ft | 316 kts | 160° |
| 2026-05-05 17:49 | 44.05875 | 4.71089 | 11974 ft | 312 kts | 160° |
| 2026-05-05 17:49 | 44.03873 | 4.72229 | 11604 ft | 309 kts | 160° |
| 2026-05-05 17:49 | 44.01911 | 4.73337 | 11196 ft | 306 kts | 160° |
| 2026-05-05 17:50 | 43.99929 | 4.74450 | 10745 ft | 304 kts | 160° |
| 2026-05-05 17:50 | 43.97988 | 4.75544 | 10354 ft | 300 kts | 160° |
| 2026-05-05 17:50 | 43.96106 | 4.76608 | 10227 ft | 287 kts | 160° |
| 2026-05-05 17:50 | 43.94311 | 4.77621 | 10078 ft | 275 kts | 160° |
| 2026-05-05 17:51 | 43.92563 | 4.78602 | 9923 ft | 264 kts | 161° |
| 2026-05-05 17:51 | 43.90879 | 4.79545 | 9658 ft | 261 kts | 160° |
| 2026-05-05 17:51 | 43.89215 | 4.80475 | 9305 ft | 260 kts | 161° |
| 2026-05-05 17:51 | 43.87534 | 4.81414 | 8955 ft | 259 kts | 160° |
| 2026-05-05 17:52 | 43.85865 | 4.82347 | 8615 ft | 257 kts | 160° |
| 2026-05-05 17:52 | 43.84220 | 4.83267 | 8268 ft | 257 kts | 160° |
| 2026-05-05 17:52 | 43.82565 | 4.84192 | 7925 ft | 256 kts | 160° |
| 2026-05-05 17:52 | 43.80909 | 4.85119 | 7595 ft | 255 kts | 160° |
| 2026-05-05 17:53 | 43.79264 | 4.86040 | 7251 ft | 254 kts | 160° |
| 2026-05-05 17:53 | 43.77637 | 4.86953 | 6901 ft | 254 kts | 160° |
| 2026-05-05 17:53 | 43.75998 | 4.87873 | 6557 ft | 252 kts | 160° |
| 2026-05-05 17:53 | 43.74396 | 4.88773 | 6232 ft | 251 kts | 160° |
| 2026-05-05 17:54 | 43.72761 | 4.89691 | 5890 ft | 250 kts | 160° |
| 2026-05-05 17:54 | 43.71169 | 4.90585 | 5567 ft | 248 kts | 159° |
| 2026-05-05 17:54 | 43.69567 | 4.91498 | 5253 ft | 246 kts | 159° |
| 2026-05-05 17:54 | 43.67994 | 4.92403 | 4943 ft | 244 kts | 159° |
| 2026-05-05 17:55 | 43.66429 | 4.93303 | 4621 ft | 243 kts | 159° |
| 2026-05-05 17:55 | 43.64872 | 4.94197 | 4296 ft | 242 kts | 159° |
| 2026-05-05 17:55 | 43.63298 | 4.95099 | 4070 ft | 245 kts | 159° |
| 2026-05-05 17:55 | 43.61806 | 4.96067 | 4047 ft | 230 kts | 149° |
| 2026-05-05 17:56 | 43.60598 | 4.97348 | 4040 ft | 212 kts | 139° |
| 2026-05-05 17:56 | 43.59580 | 4.98789 | 4017 ft | 205 kts | 135° |
| 2026-05-05 17:56 | 43.58625 | 5.00225 | 3823 ft | 203 kts | 135° |
| 2026-05-05 17:56 | 43.57669 | 5.01638 | 3557 ft | 203 kts | 135° |
| 2026-05-05 17:57 | 43.56698 | 5.03038 | 3290 ft | 202 kts | 136° |
| 2026-05-05 17:57 | 43.55724 | 5.04421 | 3025 ft | 201 kts | 136° |
| 2026-05-05 17:57 | 43.54740 | 5.05810 | 2760 ft | 201 kts | 136° |
| 2026-05-05 17:57 | 43.53780 | 5.07164 | 2500 ft | 200 kts | 136° |
| 2026-05-05 17:58 | 43.52803 | 5.08544 | 2267 ft | 195 kts | 136° |
| 2026-05-05 17:58 | 43.51902 | 5.09820 | 2066 ft | 181 kts | 136° |
| 2026-05-05 17:58 | 43.51044 | 5.11036 | 1810 ft | 169 kts | 136° |
| 2026-05-05 17:58 | 43.50261 | 5.12147 | 1573 ft | 156 kts | 136° |
| 2026-05-05 17:59 | 43.49546 | 5.13162 | 1338 ft | 141 kts | 136° |
| 2026-05-05 17:59 | 43.48872 | 5.14096 | 1085 ft | 136 kts | 137° |
| 2026-05-05 17:59 | 43.48204 | 5.15033 | 956 ft | 136 kts | 135° |
| 2026-05-05 17:59 | 43.47555 | 5.15978 | 826 ft | 136 kts | 135° |
| 2026-05-05 18:00 | 43.46917 | 5.16911 | 633 ft | 135 kts | 135° |
| 2026-05-05 18:00 | 43.46253 | 5.17845 | 480 ft | 135 kts | 136° |
| 2026-05-05 18:00 | 43.45596 | 5.18765 | 294 ft | 134 kts | 136° |
| 2026-05-05 18:00 | 43.44950 | 5.19689 | 117 ft | 134 kts | 136° |
| 2026-05-05 18:01 | 43.44314 | 5.20585 | 15 ft | 122 kts | 135° |
| 2026-05-05 18:01 | 43.43832 | 5.21271 | 25 ft | 74 kts | 134° |
| 2026-05-05 18:01 | 43.43603 | 5.21604 | 34 ft | 35 kts | 137° |
| 2026-05-05 18:01 | 43.43440 | 5.21827 | 42 ft | 30 kts | 135° |
| 2026-05-05 18:02 | 43.43334 | 5.22042 | 48 ft | 26 kts | 98° |
| 2026-05-05 18:02 | 43.43344 | 5.22235 | 51 ft | 15 kts | 66° |
| 2026-05-05 18:02 | 43.43436 | 5.22270 | 49 ft | 16 kts | 332° |
| 2026-05-05 18:02 | 43.43548 | 5.22179 | 43 ft | 20 kts | 328° |
| 2026-05-05 18:03 | 43.43670 | 5.22079 | 36 ft | 20 kts | 330° |
| 2026-05-05 18:03 | 43.43782 | 5.22032 | 33 ft | 13 kts | 30° |
| 2026-05-05 18:03 | 43.43851 | 5.22122 | 33 ft | 13 kts | 43° |
| 2026-05-05 18:03 | 43.43896 | 5.22180 | 35 ft | 7 kts | 43° |
| 2026-05-05 18:04 | 43.43921 | 5.22219 | 36 ft | 3 kts | 58° |
| 2026-05-05 18:04 | 43.43929 | 5.22239 | 37 ft | 0 kts | 62° |
| 2026-05-05 18:04 | 43.43929 | 5.22240 | 37 ft | 0 kts | 62° |
| 2026-05-05 18:04 | 43.43930 | 5.22242 | 37 ft | 0 kts | 61° |
| 2026-05-05 18:05 | 43.43932 | 5.22246 | 37 ft | 0 kts | 62° |
| 2026-05-05 18:05 | 43.43932 | 5.22248 | 37 ft | 0 kts | 62° |